createdAt,value
2018-01-14T00:00:02.968Z,66.50
2018-01-14T00:02:30.575Z,66.40
2018-01-14T00:04:58.165Z,66.80
2018-01-14T00:07:25.728Z,67.20
2018-01-14T00:09:53.318Z,67.10
2018-01-14T00:12:20.886Z,66.40
2018-01-14T00:14:48.453Z,67.50
2018-01-14T00:17:16.045Z,66.80
2018-01-14T00:19:43.611Z,66.70
2018-01-14T00:22:11.956Z,66.60
2018-01-14T00:24:39.525Z,66.50
2018-01-14T00:27:07.113Z,66.40
2018-01-14T00:29:34.673Z,66.50
2018-01-14T00:32:02.301Z,67.40
2018-01-14T00:34:29.869Z,66.50
2018-01-14T00:36:57.457Z,66.40
2018-01-14T00:39:25.022Z,66.50
2018-01-14T00:41:52.615Z,67.80
2018-01-14T00:44:20.182Z,67.30
2018-01-14T00:46:47.769Z,68.10
2018-01-14T00:49:16.097Z,66.50
2018-01-14T00:51:43.685Z,66.30
2018-01-14T00:54:11.256Z,66.90
2018-01-14T00:56:38.852Z,67.10
2018-01-14T00:59:06.448Z,67.30
2018-01-14T01:01:34.045Z,67.40
2018-01-14T01:04:02.371Z,66.50
2018-01-14T01:06:29.956Z,66.50
2018-01-14T01:08:57.566Z,66.90
2018-01-14T01:11:25.161Z,66.90
2018-01-14T01:13:52.729Z,66.90
2018-01-14T01:16:20.327Z,66.90
2018-01-14T01:18:48.661Z,67.10
2018-01-14T01:21:16.254Z,67.00
2018-01-14T01:23:43.825Z,66.60
2018-01-14T01:26:12.351Z,67.10
2018-01-14T01:28:39.922Z,67.10
2018-01-14T01:31:07.489Z,66.60
2018-01-14T01:33:35.082Z,66.70
2018-01-14T01:36:02.665Z,66.20
2018-01-14T01:38:30.254Z,66.20
2018-01-14T01:40:57.824Z,66.30
2018-01-14T01:43:25.421Z,66.80
2018-01-14T01:45:53.752Z,66.80
2018-01-14T01:48:21.352Z,66.80
2018-01-14T01:50:49.702Z,67.60
2018-01-14T01:53:17.313Z,66.90
2018-01-14T01:55:44.878Z,67.10
2018-01-14T01:58:12.471Z,68.50
2018-01-14T02:00:40.041Z,68.00
2018-01-14T02:03:07.640Z,67.50
2018-01-14T02:05:35.204Z,67.60
2018-01-14T02:08:02.796Z,67.60
2018-01-14T02:10:30.359Z,66.90
2018-01-14T02:12:57.956Z,67.10
2018-01-14T02:15:26.292Z,67.70
2018-01-14T02:17:53.881Z,67.70
2018-01-14T02:20:21.448Z,68.30
2018-01-14T02:22:49.038Z,67.80
2018-01-14T02:25:16.608Z,68.60
2018-01-14T02:27:44.193Z,68.20
2018-01-14T02:30:11.762Z,68.60
2018-01-14T02:32:41.005Z,67.40
2018-01-14T02:35:08.568Z,67.70
2018-01-14T02:37:36.177Z,68.30
2018-01-14T02:40:03.747Z,67.40
2018-01-14T02:42:31.366Z,67.50
2018-01-14T02:44:58.935Z,67.30
2018-01-14T02:47:26.504Z,67.40
2018-01-14T02:49:54.096Z,68.00
2018-01-14T02:52:23.346Z,68.10
2018-01-14T02:54:50.933Z,68.10
2018-01-14T02:57:18.500Z,68.00
2018-01-14T02:59:46.096Z,67.40
2018-01-14T03:02:13.668Z,67.40
2018-01-14T03:04:41.255Z,67.80
2018-01-14T03:07:08.828Z,67.30
2018-01-14T03:09:36.417Z,67.40
2018-01-14T03:12:03.985Z,67.90
2018-01-14T03:14:31.580Z,68.40
2018-01-14T03:16:59.157Z,68.90
2018-01-14T03:19:26.747Z,67.90
2018-01-14T03:21:55.090Z,67.80
2018-01-14T03:24:22.682Z,67.80
2018-01-14T03:26:50.250Z,67.60
2018-01-14T03:29:18.605Z,67.50
2018-01-14T03:31:46.178Z,67.50
2018-01-14T03:34:13.769Z,67.90
2018-01-14T03:36:41.335Z,67.60
2018-01-14T03:39:08.929Z,67.10
2018-01-14T03:41:36.497Z,67.10
2018-01-14T03:44:04.088Z,67.50
2018-01-14T03:46:31.666Z,67.80
2018-01-14T03:48:59.260Z,67.70
2018-01-14T03:51:26.825Z,67.70
2018-01-14T03:53:54.413Z,66.90
2018-01-14T03:56:22.754Z,67.50
2018-01-14T03:58:50.324Z,67.50
2018-01-14T04:01:17.916Z,67.40
2018-01-14T04:03:45.493Z,67.10
2018-01-14T04:06:13.102Z,66.90
2018-01-14T04:08:40.699Z,66.60
2018-01-14T04:11:08.288Z,67.00
2018-01-14T04:13:35.851Z,67.90
2018-01-14T04:16:03.433Z,67.00
2018-01-14T04:18:31.008Z,67.20
2018-01-14T04:20:58.609Z,66.90
2018-01-14T04:23:26.181Z,67.60
2018-01-14T04:25:53.779Z,67.20
2018-01-14T04:28:21.350Z,67.80
2018-01-14T04:30:49.706Z,68.40
2018-01-14T04:33:17.289Z,68.40
2018-01-14T04:35:44.882Z,68.60
2018-01-14T04:38:12.462Z,68.50
2018-01-14T04:40:40.056Z,67.50
2018-01-14T04:43:07.631Z,67.30
2018-01-14T04:45:35.997Z,67.40
2018-01-14T04:48:03.566Z,67.40
2018-01-14T04:50:31.170Z,67.40
2018-01-14T04:52:58.738Z,68.60
2018-01-14T04:55:26.321Z,68.20
2018-01-14T04:57:53.890Z,67.80
2018-01-14T05:00:21.479Z,67.30
2018-01-14T05:02:49.041Z,67.40
2018-01-14T05:05:17.496Z,67.60
2018-01-14T05:07:45.821Z,68.20
2018-01-14T05:10:13.412Z,68.10
2018-01-14T05:12:41.770Z,67.40
2018-01-14T05:15:09.904Z,67.40
2018-01-14T05:17:37.541Z,67.70
2018-01-14T05:20:05.869Z,68.20
2018-01-14T05:22:33.453Z,68.10
2018-01-14T05:25:01.017Z,68.20
2018-01-14T05:27:28.605Z,67.90
2018-01-14T05:29:56.175Z,67.50
2018-01-14T05:32:23.770Z,67.50
2018-01-14T05:34:51.336Z,68.20
2018-01-14T05:37:18.929Z,68.20
2018-01-14T05:39:46.489Z,68.00
2018-01-14T05:42:14.845Z,67.50
2018-01-14T05:44:42.412Z,67.50
2018-01-14T05:47:09.997Z,69.00
2018-01-14T05:49:38.345Z,68.00
2018-01-14T05:52:05.946Z,68.00
2018-01-14T05:54:33.518Z,68.30
2018-01-14T05:57:01.110Z,68.30
2018-01-14T05:59:28.677Z,68.80
2018-01-14T06:01:56.275Z,68.40
2018-01-14T06:04:24.614Z,67.90
2018-01-14T06:06:52.208Z,67.90
2018-01-14T06:09:20.546Z,68.20
2018-01-14T06:11:48.207Z,68.20
2018-01-14T06:14:16.459Z,67.50
2018-01-14T06:16:44.121Z,67.50
2018-01-14T06:19:11.692Z,68.30
2018-01-14T06:21:39.284Z,68.50
2018-01-14T06:24:07.620Z,68.40
2018-01-14T06:26:35.205Z,68.80
2018-01-14T06:29:02.785Z,69.50
2018-01-14T06:31:30.350Z,69.40
2018-01-14T06:33:58.705Z,68.80
2018-01-14T06:36:26.267Z,68.80
2018-01-14T06:38:53.924Z,68.90
2018-01-14T06:41:21.497Z,68.80
2018-01-14T06:43:49.086Z,69.50
2018-01-14T06:46:16.674Z,69.10
2018-01-14T06:48:44.268Z,68.80
2018-01-14T06:51:11.833Z,69.60
2018-01-14T06:53:40.185Z,69.40
2018-01-14T06:56:07.870Z,69.30
2018-01-14T06:58:35.461Z,70.90
2018-01-14T07:01:03.035Z,69.30
2018-01-14T07:03:30.631Z,70.10
2018-01-14T07:05:58.205Z,70.30
2018-01-14T07:08:25.990Z,69.60
2018-01-14T07:10:53.565Z,69.40
2018-01-14T07:13:21.162Z,68.60
2018-01-14T07:15:48.887Z,68.90
2018-01-14T07:18:16.508Z,69.00
2018-01-14T07:20:44.077Z,68.10
2018-01-14T07:23:12.435Z,68.50
2018-01-14T07:25:40.015Z,68.40
2018-01-14T07:28:07.609Z,69.20
2018-01-14T07:30:35.176Z,68.70
2018-01-14T07:33:02.895Z,68.80
2018-01-14T07:35:31.229Z,69.60
2018-01-14T07:37:58.832Z,69.60
2018-01-14T07:40:26.396Z,70.60
2018-01-14T07:42:54.220Z,69.40
2018-01-14T07:45:21.813Z,69.60
2018-01-14T07:47:49.382Z,71.10
2018-01-14T07:50:16.973Z,69.90
2018-01-14T07:52:44.541Z,70.40
2018-01-14T07:55:12.130Z,70.40
2018-01-14T07:57:39.702Z,69.20
2018-01-14T08:00:07.296Z,69.10
2018-01-14T08:02:34.863Z,69.30
2018-01-14T08:05:02.461Z,69.80
2018-01-14T08:07:30.036Z,69.20
2018-01-14T08:09:58.397Z,69.80
2018-01-14T08:12:25.969Z,69.70
2018-01-14T08:14:53.557Z,69.70
2018-01-14T08:17:21.127Z,70.90
2018-01-14T08:19:48.718Z,69.70
2018-01-14T08:22:16.296Z,69.70
2018-01-14T08:24:43.885Z,69.40
2018-01-14T08:27:12.213Z,70.10
2018-01-14T08:29:39.799Z,69.40
2018-01-14T08:32:07.368Z,69.90
2018-01-14T08:34:35.721Z,71.30
2018-01-14T08:37:03.293Z,71.30
2018-01-14T08:39:30.885Z,71.70
2018-01-14T08:41:58.458Z,73.00
2018-01-14T08:44:26.046Z,72.80
2018-01-14T08:46:54.386Z,73.10
2018-01-14T08:49:21.978Z,73.10
2018-01-14T08:51:49.551Z,72.70
2018-01-14T08:54:17.146Z,72.70
2018-01-14T08:56:44.713Z,72.40
2018-01-14T08:59:12.277Z,73.00
2018-01-14T09:01:45.590Z,72.80
2018-01-14T09:04:13.154Z,72.70
2018-01-14T09:06:40.746Z,71.20
2018-01-14T09:09:08.318Z,71.10
2018-01-14T09:11:35.909Z,71.30
2018-01-14T09:14:03.559Z,70.70
2018-01-14T09:16:31.184Z,69.70
2018-01-14T09:18:58.762Z,69.30
2018-01-14T09:21:26.353Z,69.40
2018-01-14T09:23:53.919Z,68.70
2018-01-14T09:26:21.506Z,68.00
2018-01-14T09:28:49.069Z,67.80
2018-01-14T09:31:16.665Z,67.80
2018-01-14T09:33:44.238Z,66.70
2018-01-14T09:36:11.826Z,67.00
2018-01-14T09:38:39.390Z,67.40
2018-01-14T09:41:06.977Z,66.30
2018-01-14T09:43:34.599Z,66.90
2018-01-14T09:46:02.193Z,64.70
2018-01-14T09:48:29.773Z,66.10
2018-01-14T09:50:57.807Z,65.60
2018-01-14T09:53:25.372Z,65.30
2018-01-14T09:55:52.970Z,66.40
2018-01-14T09:58:21.301Z,65.10
2018-01-14T10:00:48.892Z,65.10
2018-01-14T10:03:16.461Z,62.40
2018-01-14T10:05:45.348Z,63.50
2018-01-14T10:08:12.913Z,63.40
2018-01-14T10:10:41.271Z,63.80
2018-01-14T10:13:08.842Z,63.50
2018-01-14T10:15:37.202Z,62.50
2018-01-14T10:18:04.773Z,62.50
2018-01-14T10:20:32.349Z,63.80
2018-01-14T10:23:00.708Z,60.10
2018-01-14T10:25:29.045Z,58.20
2018-01-14T10:27:56.772Z,58.20
2018-01-14T10:30:24.340Z,59.50
2018-01-14T10:32:51.934Z,59.10
2018-01-14T10:35:19.512Z,60.40
2018-01-14T10:37:47.109Z,57.80
2018-01-14T10:40:14.687Z,57.90
2018-01-14T10:42:42.277Z,57.00
2018-01-14T10:45:09.848Z,57.20
2018-01-14T10:47:37.436Z,59.60
2018-01-14T10:50:05.768Z,58.60
2018-01-14T10:52:33.365Z,58.70
2018-01-14T10:55:00.945Z,57.80
2018-01-14T10:57:28.539Z,55.40
2018-01-14T10:59:56.108Z,53.10
2018-01-14T11:02:23.704Z,54.30
2018-01-14T11:04:52.054Z,54.40
2018-01-14T11:07:19.654Z,54.30
2018-01-14T11:09:47.238Z,52.90
2018-01-14T11:12:14.834Z,52.40
2018-01-14T11:14:42.433Z,51.10
2018-01-14T11:17:10.026Z,51.10
2018-01-14T11:19:37.606Z,51.50
2018-01-14T11:22:05.200Z,53.10
2018-01-14T11:24:33.540Z,50.70
2018-01-14T11:27:01.142Z,50.70
2018-01-14T11:29:53.455Z,51.10
2018-01-14T11:32:21.054Z,51.10
2018-01-14T11:34:48.903Z,50.40
2018-01-14T11:37:18.062Z,52.70
2018-01-14T11:39:48.066Z,52.40
2018-01-14T11:42:16.476Z,51.80
2018-01-14T11:44:44.047Z,51.70
2018-01-14T11:47:11.650Z,51.30
2018-01-14T11:49:39.265Z,49.90
2018-01-14T11:52:06.833Z,50.00
2018-01-14T11:54:34.429Z,53.00
2018-01-14T11:57:01.996Z,50.00
2018-01-14T11:59:30.353Z,51.90
2018-01-14T12:01:57.922Z,51.80
2018-01-14T12:04:25.515Z,51.30
2018-01-14T12:06:53.085Z,50.70
2018-01-14T12:09:20.686Z,52.00
2018-01-14T12:11:48.257Z,49.80
2018-01-14T12:14:15.853Z,52.20
2018-01-14T12:16:43.421Z,52.20
2018-01-14T12:19:11.014Z,52.10
2018-01-14T12:21:38.581Z,52.80
2018-01-14T12:24:06.176Z,52.20
2018-01-14T12:26:33.740Z,52.90
2018-01-14T12:29:01.336Z,54.80
2018-01-14T12:31:28.896Z,54.60
2018-01-14T12:37:06.831Z,53.30
2018-01-14T12:39:34.428Z,53.80
2018-01-14T12:42:01.997Z,53.40
2018-01-14T12:44:29.593Z,54.20
2018-01-14T12:46:57.937Z,54.50
2018-01-14T12:49:25.534Z,54.50
2018-01-14T12:51:53.105Z,54.00
2018-01-14T12:54:20.696Z,53.70
2018-01-14T12:56:48.259Z,54.10
2018-01-14T12:59:15.861Z,55.60
2018-01-14T13:01:44.230Z,55.50
2018-01-14T13:04:12.592Z,53.70
2018-01-14T13:06:40.171Z,53.70
2018-01-14T13:09:07.759Z,54.80
2018-01-14T13:11:35.368Z,54.00
2018-01-14T13:14:02.957Z,55.60
2018-01-14T13:16:30.525Z,55.30
2018-01-14T13:18:58.260Z,55.40
2018-01-14T13:21:25.842Z,53.80
2018-01-14T13:23:54.243Z,53.70
2018-01-14T13:26:21.816Z,53.60
2018-01-14T13:28:49.415Z,53.90
2018-01-14T13:31:17.061Z,54.10
2018-01-14T13:33:44.637Z,53.80
2018-01-14T13:36:12.806Z,53.70
2018-01-14T13:38:40.378Z,55.50
2018-01-14T13:41:08.787Z,55.90
2018-01-14T13:43:36.359Z,55.90
2018-01-14T13:46:03.953Z,55.90
2018-01-14T13:48:32.654Z,55.40
2018-01-14T13:51:00.247Z,55.90
2018-01-14T13:53:27.898Z,55.30
2018-01-14T13:55:55.493Z,55.30
2018-01-14T13:58:23.056Z,55.20
2018-01-14T14:00:50.650Z,53.60
2018-01-14T14:03:18.261Z,54.00
2018-01-14T14:05:45.852Z,54.60
2018-01-14T14:08:13.517Z,55.10
2018-01-14T14:10:41.157Z,54.60
2018-01-14T14:13:09.496Z,54.80
2018-01-14T14:15:37.086Z,54.80
2018-01-14T14:18:05.968Z,54.70
2018-01-14T14:20:33.843Z,54.20
2018-01-14T14:23:01.453Z,55.70
2018-01-14T14:25:29.084Z,56.00
2018-01-14T14:27:56.658Z,55.50
2018-01-14T14:30:24.254Z,56.20
2018-01-14T14:32:51.868Z,55.70
2018-01-14T14:35:20.246Z,55.80
2018-01-14T14:37:47.817Z,56.40
2018-01-14T14:40:15.423Z,56.00
2018-01-14T14:42:44.294Z,56.10
2018-01-14T14:45:11.948Z,55.90
2018-01-14T14:47:39.710Z,56.40
2018-01-14T14:50:07.478Z,55.40
2018-01-14T14:52:35.892Z,56.80
2018-01-14T14:55:03.457Z,56.80
2018-01-14T14:57:31.087Z,55.20
2018-01-14T14:59:58.762Z,55.50
2018-01-14T15:02:26.356Z,55.00
2018-01-14T15:04:53.927Z,56.10
2018-01-14T15:07:21.555Z,55.60
2018-01-14T15:09:49.126Z,55.80
2018-01-14T15:12:16.756Z,56.10
2018-01-14T15:14:44.321Z,56.00
2018-01-14T15:17:11.913Z,55.60
2018-01-14T15:19:39.531Z,55.90
2018-01-14T15:22:07.120Z,56.40
2018-01-14T15:24:34.697Z,56.00
2018-01-14T15:27:02.336Z,56.10
2018-01-14T15:29:29.898Z,56.50
2018-01-14T15:31:58.252Z,56.60
2018-01-14T15:34:25.859Z,56.60
2018-01-14T15:36:53.449Z,56.30
2018-01-14T15:39:21.251Z,57.10
2018-01-14T15:41:48.898Z,56.70
2018-01-14T15:44:16.461Z,57.40
2018-01-14T15:46:44.054Z,57.20
2018-01-14T15:49:11.621Z,57.30
2018-01-14T15:51:39.236Z,57.10
2018-01-14T15:54:06.851Z,57.50
2018-01-14T15:56:34.464Z,57.70
2018-01-14T15:59:04.254Z,57.90
2018-01-14T16:01:31.821Z,58.40
2018-01-14T16:03:59.457Z,58.30
2018-01-14T16:06:31.472Z,58.60
2018-01-14T16:08:59.102Z,58.60
2018-01-14T16:11:26.715Z,58.00
2018-01-14T16:13:56.468Z,58.10
2018-01-14T16:16:26.420Z,58.60
2018-01-14T16:18:56.167Z,58.90
2018-01-14T16:21:30.638Z,58.90
2018-01-14T16:23:58.549Z,58.50
2018-01-14T16:26:26.166Z,58.00
2018-01-14T16:28:53.782Z,58.40
2018-01-14T16:31:22.116Z,58.40
2018-01-14T16:33:49.712Z,58.40
2018-01-14T16:36:18.050Z,58.90
2018-01-14T16:38:45.679Z,58.90
2018-01-14T16:41:13.291Z,58.50
2018-01-14T16:43:40.892Z,58.20
2018-01-14T16:46:08.464Z,58.20
2018-01-14T16:48:36.049Z,58.50
2018-01-14T16:51:03.845Z,58.40
2018-01-14T16:53:31.442Z,58.90
2018-01-14T16:55:59.829Z,59.20
2018-01-14T16:58:27.464Z,59.40
2018-01-14T17:00:55.036Z,59.10
2018-01-14T17:03:22.632Z,58.90
2018-01-14T17:05:50.204Z,59.20
2018-01-14T17:08:17.830Z,59.80
2018-01-14T17:10:45.436Z,59.60
2018-01-14T17:13:13.071Z,59.80
2018-01-14T17:15:40.640Z,60.10
2018-01-14T17:18:08.281Z,60.30
2018-01-14T17:20:36.131Z,59.80
2018-01-14T17:23:03.718Z,60.30
2018-01-14T17:25:31.318Z,60.70
2018-01-14T17:27:59.123Z,60.00
2018-01-14T17:30:26.717Z,59.60
2018-01-14T17:32:54.296Z,60.40
2018-01-14T17:35:22.695Z,59.40
2018-01-14T17:37:50.270Z,59.50
2018-01-14T17:40:18.095Z,60.40
2018-01-14T17:42:47.255Z,60.20
2018-01-14T17:45:15.617Z,61.20
2018-01-14T17:47:43.419Z,61.70
2018-01-14T17:50:11.010Z,60.20
2018-01-14T17:52:38.580Z,60.50
2018-01-14T17:55:06.419Z,61.10
2018-01-14T17:57:34.219Z,61.20
2018-01-14T18:00:01.816Z,60.20
2018-01-14T18:02:29.396Z,60.60
2018-01-14T18:04:57.215Z,60.60
2018-01-14T18:07:24.781Z,61.20
2018-01-14T18:09:52.415Z,60.90
2018-01-14T18:12:20.020Z,61.40
2018-01-14T18:14:47.646Z,61.40
2018-01-14T18:17:25.126Z,60.60
2018-01-14T18:19:52.946Z,60.10
2018-01-14T18:22:21.523Z,61.50
2018-01-14T18:24:49.350Z,61.40
2018-01-14T18:27:17.146Z,61.30
2018-01-14T18:29:44.744Z,60.70
2018-01-14T18:32:12.571Z,61.80
2018-01-14T18:34:40.235Z,61.20
2018-01-14T18:37:07.805Z,60.90
2018-01-14T18:39:35.436Z,61.20
2018-01-14T18:42:03.327Z,60.70
2018-01-14T18:44:31.684Z,61.30
2018-01-14T18:46:59.314Z,61.30
2018-01-14T18:49:26.932Z,60.70
2018-01-14T18:51:54.567Z,60.80
2018-01-14T18:54:22.180Z,60.90
2018-01-14T18:56:49.903Z,61.40
2018-01-14T18:59:18.752Z,61.70
2018-01-14T19:01:47.609Z,61.30
2018-01-14T19:04:15.214Z,61.30
2018-01-14T19:06:42.805Z,62.40
2018-01-14T19:09:10.426Z,61.70
2018-01-14T19:11:38.152Z,60.70
2018-01-14T19:14:05.728Z,62.00
2018-01-14T19:16:33.370Z,60.90
2018-01-14T19:19:00.941Z,62.60
2018-01-14T19:21:28.532Z,61.30
2018-01-14T19:23:56.138Z,61.10
2018-01-14T19:26:24.494Z,62.90
2018-01-14T19:28:52.065Z,62.90
2018-01-14T19:31:20.474Z,61.80
2018-01-14T19:33:49.183Z,61.80
2018-01-14T19:36:17.012Z,61.00
2018-01-14T19:38:44.637Z,61.30
2018-01-14T19:41:12.732Z,61.90
2018-01-14T19:43:40.354Z,61.50
2018-01-14T19:46:08.010Z,61.50
2018-01-14T19:48:38.562Z,62.50
2018-01-14T19:51:06.755Z,61.80
2018-01-14T19:53:35.732Z,61.70
2018-01-14T19:56:08.130Z,61.60
2018-01-14T19:58:37.767Z,62.30
2018-01-14T20:01:07.344Z,62.00
2018-01-14T20:03:35.215Z,62.30
2018-01-14T20:06:03.041Z,61.60
2018-01-14T20:08:30.788Z,63.90
2018-01-14T20:10:58.461Z,63.70
2018-01-14T20:13:26.055Z,62.50
2018-01-14T20:15:53.676Z,62.90
2018-01-14T20:18:21.340Z,61.50
2018-01-14T20:20:48.952Z,63.90
2018-01-14T20:23:16.595Z,63.70
2018-01-14T20:25:44.979Z,63.30
2018-01-14T20:28:12.622Z,63.30
2018-01-14T20:30:40.248Z,63.30
2018-01-14T20:33:07.892Z,63.70
2018-01-14T20:35:35.836Z,63.00
2018-01-14T20:38:03.498Z,63.00
2018-01-14T20:40:31.113Z,63.70
2018-01-14T20:42:59.565Z,63.00
2018-01-14T20:45:27.247Z,63.20
2018-01-14T20:47:54.893Z,64.00
2018-01-14T20:50:24.406Z,64.30
2018-01-14T20:52:53.876Z,63.80
2018-01-14T20:55:21.548Z,63.80
2018-01-14T20:57:49.185Z,62.60
2018-01-14T21:00:17.008Z,63.70
2018-01-14T21:02:44.645Z,63.50
2018-01-14T21:05:12.276Z,64.50
2018-01-14T21:07:39.926Z,63.10
2018-01-14T21:10:07.548Z,63.40
2018-01-14T21:12:35.279Z,63.80
2018-01-14T21:15:02.891Z,63.50
2018-01-14T21:17:30.482Z,63.40
2018-01-14T21:19:58.122Z,62.60
2018-01-14T21:22:26.537Z,64.50
2018-01-14T21:24:54.158Z,64.40
2018-01-14T21:27:22.569Z,64.00
2018-01-14T21:29:50.133Z,64.00
2018-01-14T21:32:17.700Z,63.80
2018-01-14T21:34:45.341Z,64.50
2018-01-14T21:37:12.961Z,63.90
2018-01-14T21:39:41.363Z,64.00
2018-01-14T21:42:08.987Z,63.90
2018-01-14T21:44:36.628Z,63.80
2018-01-14T21:47:05.162Z,64.50
2018-01-14T21:49:32.795Z,63.00
2018-01-14T21:52:00.413Z,65.20
2018-01-14T21:54:28.062Z,64.60
2018-01-14T21:56:55.689Z,65.00
2018-01-14T21:59:24.220Z,64.80
2018-01-14T22:01:51.842Z,64.80
2018-01-14T22:04:19.479Z,63.80
2018-01-14T22:06:47.049Z,63.80
2018-01-14T22:09:15.400Z,64.40
2018-01-14T22:11:42.979Z,64.30
2018-01-14T22:14:10.622Z,63.20
2018-01-14T22:16:38.194Z,63.30
2018-01-14T22:19:05.838Z,63.30
2018-01-14T22:21:33.464Z,63.80
2018-01-14T22:24:01.103Z,63.00
2018-01-14T22:26:28.736Z,64.50
2018-01-14T22:28:56.377Z,64.70
2018-01-14T22:31:23.940Z,64.20
2018-01-14T22:33:51.555Z,63.80
2018-01-14T22:36:19.193Z,65.10
2018-01-14T22:38:47.588Z,63.50
2018-01-14T22:41:15.228Z,63.40
2018-01-14T22:43:43.064Z,64.80
2018-01-14T22:46:10.653Z,64.60
2018-01-14T22:48:38.987Z,63.70
2018-01-14T22:51:06.581Z,63.80
2018-01-14T22:53:34.198Z,65.30
2018-01-14T22:56:01.831Z,65.80
2018-01-14T22:58:29.440Z,65.00
2018-01-14T23:00:57.080Z,63.60
2018-01-14T23:03:24.695Z,64.00
2018-01-14T23:05:53.049Z,64.70
2018-01-14T23:08:20.652Z,64.70
2018-01-14T23:10:48.292Z,63.70
2018-01-14T23:13:15.863Z,63.50
2018-01-14T23:15:43.476Z,63.20
2018-01-14T23:18:11.041Z,62.80
2018-01-14T23:20:38.631Z,63.10
2018-01-14T23:23:06.216Z,63.20
2018-01-14T23:25:33.819Z,63.70
2018-01-14T23:28:01.402Z,63.80
2018-01-14T23:30:28.998Z,63.40
2018-01-14T23:32:56.577Z,62.90
2018-01-14T23:35:24.170Z,63.80
2018-01-14T23:37:51.733Z,64.20
2018-01-14T23:40:20.091Z,64.40
2018-01-14T23:42:47.662Z,64.30
2018-01-14T23:45:15.249Z,63.10
2018-01-14T23:47:42.814Z,64.10
2018-01-14T23:50:10.406Z,65.50
2018-01-14T23:52:37.979Z,64.60
2018-01-14T23:55:05.547Z,64.60
2018-01-14T23:57:33.169Z,66.10
